createdAt,value
2018-12-11T00:01:09.222Z,20.84
2018-12-11T00:03:35.798Z,20.85
2018-12-11T00:06:02.370Z,20.84
2018-12-11T00:08:28.959Z,20.84
2018-12-11T00:10:55.552Z,20.84
2018-12-11T00:13:22.227Z,20.83
2018-12-11T00:15:48.878Z,20.85
2018-12-11T00:18:15.464Z,20.85
2018-12-11T00:20:42.065Z,20.82
2018-12-11T00:23:08.648Z,20.82
2018-12-11T00:25:35.233Z,20.82
2018-12-11T00:28:01.807Z,20.83
2018-12-11T00:30:28.395Z,20.83
2018-12-11T00:32:54.949Z,20.83
2018-12-11T00:35:21.539Z,20.84
2018-12-11T00:37:48.132Z,20.83
2018-12-11T00:40:14.739Z,20.83
2018-12-11T00:42:41.336Z,20.84
2018-12-11T00:45:07.938Z,20.83
2018-12-11T00:47:34.535Z,20.84
2018-12-11T00:50:01.155Z,20.80
2018-12-11T00:55:13.187Z,20.84
2018-12-11T00:57:39.764Z,20.83
2018-12-11T01:00:07.295Z,20.82
2018-12-11T01:02:33.886Z,20.82
2018-12-11T01:05:00.459Z,20.83
2018-12-11T01:07:27.024Z,20.81
2018-12-11T01:09:53.596Z,20.81
2018-12-11T01:12:20.209Z,20.81
2018-12-11T01:14:46.816Z,20.82
2018-12-11T01:17:13.387Z,20.82
2018-12-11T01:19:39.983Z,20.81
2018-12-11T01:22:06.584Z,20.82
2018-12-11T01:24:33.185Z,20.82
2018-12-11T01:26:59.818Z,20.81
2018-12-11T01:29:26.459Z,20.81
2018-12-11T01:31:53.043Z,20.80
2018-12-11T01:34:19.611Z,20.78
2018-12-11T01:36:46.181Z,20.79
2018-12-11T01:39:12.752Z,20.80
2018-12-11T01:41:39.334Z,20.80
2018-12-11T01:44:05.895Z,20.77
2018-12-11T01:46:32.475Z,20.79
2018-12-11T01:48:59.068Z,20.80
2018-12-11T01:51:25.620Z,20.79
2018-12-11T01:53:52.200Z,20.78
2018-12-11T01:56:18.773Z,20.79
2018-12-11T01:58:45.347Z,20.77
2018-12-11T02:01:11.919Z,20.77
2018-12-11T02:03:38.478Z,20.77
2018-12-11T02:06:05.026Z,20.78
2018-12-11T02:08:31.589Z,20.77
2018-12-11T02:10:58.188Z,20.78
2018-12-11T02:13:24.735Z,20.77
2018-12-11T02:15:51.311Z,20.74
2018-12-11T02:18:17.887Z,20.77
2018-12-11T02:20:44.439Z,20.75
2018-12-11T02:23:11.031Z,20.75
2018-12-11T02:25:37.741Z,20.75
2018-12-11T02:28:04.312Z,20.75
2018-12-11T02:30:30.892Z,20.74
2018-12-11T02:32:57.484Z,20.75
2018-12-11T02:35:24.092Z,20.74
2018-12-11T02:37:50.685Z,20.74
2018-12-11T02:40:17.283Z,20.75
2018-12-11T02:42:43.856Z,20.73
2018-12-11T02:45:10.424Z,20.73
2018-12-11T02:47:36.997Z,20.74
2018-12-11T02:50:03.607Z,20.74
2018-12-11T02:52:30.192Z,20.74
2018-12-11T02:54:56.808Z,20.74
2018-12-11T02:57:23.364Z,20.74
2018-12-11T02:59:49.943Z,20.73
2018-12-11T03:02:16.513Z,20.72
2018-12-11T03:04:43.107Z,20.73
2018-12-11T03:07:09.718Z,20.72
2018-12-11T03:09:36.290Z,20.72
2018-12-11T03:12:02.852Z,20.73
2018-12-11T03:14:29.416Z,20.73
2018-12-11T03:16:55.986Z,20.72
2018-12-11T03:19:22.579Z,20.71
2018-12-11T03:21:49.168Z,20.72
2018-12-11T03:24:15.723Z,20.71
2018-12-11T03:26:42.294Z,20.72
2018-12-11T03:29:08.905Z,20.72
2018-12-11T03:31:35.511Z,20.71
2018-12-11T03:34:02.138Z,20.72
2018-12-11T03:36:28.723Z,20.71
2018-12-11T03:38:55.312Z,20.71
2018-12-11T03:41:21.884Z,20.72
2018-12-11T03:43:48.471Z,20.71
2018-12-11T03:46:15.031Z,20.71
2018-12-11T03:48:41.623Z,20.72
2018-12-11T03:51:08.229Z,20.70
2018-12-11T03:53:34.850Z,20.69
2018-12-11T03:56:01.425Z,20.69
2018-12-11T03:58:27.978Z,20.68
2018-12-11T04:00:54.553Z,20.69
2018-12-11T04:03:21.133Z,20.70
2018-12-11T04:05:47.748Z,20.68
2018-12-11T04:08:14.400Z,20.68
2018-12-11T04:10:40.987Z,20.66
2018-12-11T04:13:07.575Z,20.69
2018-12-11T04:15:34.135Z,20.69
2018-12-11T04:18:00.702Z,20.67
2018-12-11T04:20:27.264Z,20.68
2018-12-11T04:22:53.822Z,20.68
2018-12-11T04:25:20.381Z,20.69
2018-12-11T04:27:46.960Z,20.68
2018-12-11T04:30:13.713Z,20.67
2018-12-11T04:32:40.468Z,20.67
2018-12-11T04:35:07.056Z,20.67
2018-12-11T04:37:33.791Z,20.67
2018-12-11T04:40:00.567Z,20.67
2018-12-11T04:42:27.177Z,20.67
2018-12-11T04:44:53.955Z,20.65
2018-12-11T04:47:20.678Z,20.67
2018-12-11T04:49:47.291Z,20.66
2018-12-11T04:52:13.873Z,20.66
2018-12-11T04:54:40.603Z,20.66
2018-12-11T04:57:07.202Z,20.68
2018-12-11T04:59:33.784Z,20.67
2018-12-11T05:02:00.383Z,20.67
2018-12-11T05:04:26.964Z,20.68
2018-12-11T05:06:53.579Z,20.66
2018-12-11T05:09:20.134Z,20.68
2018-12-11T05:11:46.706Z,20.68
2018-12-11T05:14:13.300Z,20.68
2018-12-11T05:16:39.865Z,20.67
2018-12-11T05:19:06.432Z,20.68
2018-12-11T05:21:32.995Z,20.67
2018-12-11T05:23:59.592Z,20.68
2018-12-11T05:26:26.182Z,20.67
2018-12-11T05:28:52.732Z,20.70
2018-12-11T05:31:19.318Z,20.68
2018-12-11T05:33:45.919Z,20.67
2018-12-11T05:36:12.484Z,20.66
2018-12-11T05:38:39.080Z,20.67
2018-12-11T05:41:05.655Z,20.67
2018-12-11T05:43:32.233Z,20.67
2018-12-11T05:45:58.821Z,20.69
2018-12-11T05:48:25.392Z,20.69
2018-12-11T05:50:51.994Z,20.68
2018-12-11T05:53:18.554Z,20.69
2018-12-11T05:55:45.143Z,20.70
2018-12-11T05:58:11.781Z,20.71
2018-12-11T06:00:38.335Z,20.71
2018-12-11T06:03:04.897Z,20.70
2018-12-11T06:05:31.451Z,20.68
2018-12-11T06:07:58.030Z,20.71
2018-12-11T06:10:24.615Z,20.70
2018-12-11T06:12:51.186Z,20.70
2018-12-11T06:15:17.734Z,20.70
2018-12-11T06:17:44.304Z,20.70
2018-12-11T06:20:10.883Z,20.71
2018-12-11T06:22:37.451Z,20.71
2018-12-11T06:25:04.241Z,20.71
2018-12-11T06:27:30.968Z,20.71
2018-12-11T06:29:57.535Z,20.71
2018-12-11T06:32:24.094Z,20.71
2018-12-11T06:34:50.677Z,20.71
2018-12-11T06:37:17.291Z,20.60
2018-12-11T06:39:43.838Z,20.71
2018-12-11T06:42:10.424Z,20.71
2018-12-11T06:44:37.011Z,20.71
2018-12-11T06:47:03.599Z,20.70
2018-12-11T06:49:30.171Z,20.72
2018-12-11T06:51:56.719Z,20.71
2018-12-11T06:54:23.374Z,20.71
2018-12-11T06:56:50.051Z,20.70
2018-12-11T06:59:16.710Z,20.71
2018-12-11T07:01:43.303Z,20.71
2018-12-11T07:04:09.876Z,20.70
2018-12-11T07:06:36.523Z,20.70
2018-12-11T07:09:03.417Z,20.71
2018-12-11T07:11:30.104Z,20.71
2018-12-11T07:13:56.672Z,20.70
2018-12-11T07:16:23.263Z,20.70
2018-12-11T07:18:49.807Z,20.70
2018-12-11T07:21:16.416Z,20.71
2018-12-11T07:23:43.043Z,20.69
2018-12-11T07:26:09.630Z,20.69
2018-12-11T07:28:36.257Z,20.70
2018-12-11T07:31:02.831Z,20.69
2018-12-11T07:33:29.445Z,20.70
2018-12-11T07:35:56.289Z,20.70
2018-12-11T07:38:22.901Z,20.69
2018-12-11T07:40:49.470Z,20.68
2018-12-11T07:43:16.071Z,20.69
2018-12-11T07:45:42.674Z,20.67
2018-12-11T07:48:09.266Z,20.69
2018-12-11T07:50:35.874Z,20.69
2018-12-11T07:53:06.295Z,20.69
2018-12-11T07:55:31.090Z,20.68
2018-12-11T07:57:57.690Z,20.68
2018-12-11T08:00:24.355Z,20.69
2018-12-11T08:02:50.914Z,20.68
2018-12-11T08:05:17.550Z,20.68
2018-12-11T08:07:44.143Z,20.68
2018-12-11T08:10:10.727Z,20.68
2018-12-11T08:12:37.295Z,20.67
2018-12-11T08:15:03.850Z,20.66
2018-12-11T08:17:30.475Z,20.66
2018-12-11T08:19:57.103Z,20.67
2018-12-11T08:22:23.712Z,20.67
2018-12-11T08:24:50.285Z,20.68
2018-12-11T08:27:16.840Z,20.69
2018-12-11T08:29:43.399Z,20.69
2018-12-11T08:32:09.946Z,20.71
2018-12-11T08:34:36.506Z,18.10
2018-12-11T08:37:03.092Z,17.39
2018-12-11T08:39:29.737Z,16.80
2018-12-11T08:41:56.362Z,16.42
2018-12-11T08:44:23.001Z,16.28
2018-12-11T08:46:49.647Z,16.28
2018-12-11T08:49:16.274Z,16.41
2018-12-11T08:51:42.906Z,16.30
2018-12-11T08:54:09.604Z,15.89
2018-12-11T08:56:36.186Z,16.03
2018-12-11T08:59:06.419Z,15.78
2018-12-11T09:01:31.449Z,15.61
2018-12-11T09:03:58.087Z,15.65
2018-12-11T09:06:24.692Z,15.47
2018-12-11T09:08:51.304Z,15.41
2018-12-11T09:11:17.901Z,15.37
2018-12-11T09:13:44.537Z,15.45
2018-12-11T09:16:11.184Z,15.01
2018-12-11T09:18:37.823Z,15.19
2018-12-11T09:21:04.456Z,15.17
2018-12-11T09:23:31.053Z,14.68
2018-12-11T09:25:57.693Z,15.21
2018-12-11T09:28:24.324Z,15.11
2018-12-11T09:30:50.933Z,15.01
2018-12-11T09:33:17.584Z,15.23
2018-12-11T09:35:44.213Z,14.89
2018-12-11T09:38:10.825Z,15.99
2018-12-11T09:40:37.444Z,16.80
2018-12-11T09:43:04.045Z,17.27
2018-12-11T09:45:30.656Z,17.61
2018-12-11T09:47:57.368Z,17.82
2018-12-11T09:50:24.008Z,18.01
2018-12-11T09:52:50.591Z,18.12
2018-12-11T09:55:17.654Z,18.25
2018-12-11T09:57:44.420Z,18.34
2018-12-11T10:00:11.045Z,18.42
2018-12-11T10:02:37.643Z,18.51
2018-12-11T10:05:04.214Z,18.58
2018-12-11T10:07:30.819Z,18.65
2018-12-11T10:09:57.405Z,18.73
2018-12-11T10:12:24.019Z,18.77
2018-12-11T10:14:50.731Z,18.83
2018-12-11T10:17:17.369Z,18.88
2018-12-11T10:19:43.938Z,18.94
2018-12-11T10:22:10.518Z,18.99
2018-12-11T10:24:37.146Z,19.08
2018-12-11T10:27:03.807Z,19.14
2018-12-11T10:29:30.627Z,19.18
2018-12-11T10:31:57.259Z,19.20
2018-12-11T10:34:24.097Z,19.24
2018-12-11T10:36:50.948Z,19.26
2018-12-11T10:39:17.928Z,19.29
2018-12-11T10:41:44.907Z,19.31
2018-12-11T10:44:11.859Z,19.34
2018-12-11T10:46:38.690Z,19.37
2018-12-11T10:49:05.311Z,19.38
2018-12-11T10:51:31.933Z,19.42
2018-12-11T10:53:58.537Z,19.43
2018-12-11T10:56:25.301Z,19.45
2018-12-11T10:58:51.989Z,19.48
2018-12-11T11:01:18.856Z,19.50
2018-12-11T11:03:45.704Z,19.52
2018-12-11T11:06:12.664Z,19.54
2018-12-11T11:08:39.546Z,19.52
2018-12-11T11:11:06.534Z,19.58
2018-12-11T11:13:33.206Z,19.59
2018-12-11T11:15:59.921Z,19.61
2018-12-11T11:18:26.633Z,19.62
2018-12-11T11:20:53.290Z,19.66
2018-12-11T11:23:19.936Z,19.67
2018-12-11T11:25:46.602Z,19.68
2018-12-11T11:28:13.229Z,19.70
2018-12-11T11:30:39.867Z,19.72
2018-12-11T11:33:06.529Z,19.74
2018-12-11T11:35:33.303Z,19.73
2018-12-11T11:37:59.890Z,19.77
2018-12-11T11:40:26.523Z,19.83
2018-12-11T11:42:53.139Z,19.91
2018-12-11T11:45:19.896Z,19.88
2018-12-11T11:47:46.564Z,19.88
2018-12-11T11:50:14.429Z,19.90
2018-12-11T11:52:41.126Z,19.91
2018-12-11T11:55:07.735Z,19.91
2018-12-11T11:57:34.331Z,19.94
2018-12-11T12:00:00.947Z,19.91
2018-12-11T12:02:33.236Z,19.94
2018-12-11T12:04:56.183Z,19.93
2018-12-11T12:07:22.778Z,19.96
2018-12-11T12:09:49.376Z,19.98
2018-12-11T12:12:15.986Z,19.99
2018-12-11T12:14:48.925Z,19.99
2018-12-11T12:17:11.174Z,20.00
2018-12-11T12:19:37.773Z,20.02
2018-12-11T12:22:04.426Z,20.02
2018-12-11T12:24:31.035Z,20.03
2018-12-11T12:26:57.618Z,20.03
2018-12-11T12:29:24.214Z,20.09
2018-12-11T12:31:50.800Z,20.08
2018-12-11T12:34:17.527Z,20.11
2018-12-11T12:36:44.128Z,20.10
2018-12-11T12:39:10.745Z,20.12
2018-12-11T12:41:37.337Z,20.15
2018-12-11T12:44:03.963Z,20.22
2018-12-11T12:46:30.626Z,20.24
2018-12-11T12:48:57.233Z,20.23
2018-12-11T12:51:23.809Z,20.27
2018-12-11T12:53:50.432Z,20.25
2018-12-11T12:56:17.062Z,20.25
2018-12-11T12:58:43.771Z,20.25
2018-12-11T13:01:10.388Z,20.25
2018-12-11T13:03:37.234Z,20.28
2018-12-11T13:06:03.830Z,20.29
2018-12-11T13:08:30.414Z,20.27
2018-12-11T13:10:57.010Z,20.31
2018-12-11T13:13:23.613Z,20.32
2018-12-11T13:15:50.223Z,20.33
2018-12-11T13:18:16.823Z,20.34
2018-12-11T13:20:43.445Z,20.08
2018-12-11T13:23:10.044Z,20.34
2018-12-11T13:25:36.647Z,20.36
2018-12-11T13:28:03.229Z,20.39
2018-12-11T13:30:29.872Z,20.38
2018-12-11T13:32:56.438Z,20.40
2018-12-11T13:35:23.074Z,20.39
2018-12-11T13:37:49.698Z,20.40
2018-12-11T13:40:16.407Z,20.42
2018-12-11T13:42:43.039Z,20.42
2018-12-11T13:45:09.760Z,20.47
2018-12-11T13:47:36.434Z,20.52
2018-12-11T13:50:03.117Z,20.51
2018-12-11T13:52:29.758Z,20.50
2018-12-11T13:54:56.685Z,20.50
2018-12-11T13:57:23.361Z,20.53
2018-12-11T13:59:50.151Z,20.53
2018-12-11T14:02:16.809Z,20.56
2018-12-11T14:04:43.713Z,20.56
2018-12-11T14:07:10.415Z,20.56
2018-12-11T14:09:39.946Z,20.57
2018-12-11T14:12:06.599Z,20.60
2018-12-11T14:14:33.232Z,20.61
2018-12-11T14:16:59.896Z,20.59
2018-12-11T14:19:26.488Z,20.63
2018-12-11T14:21:53.135Z,20.63
2018-12-11T14:24:19.781Z,20.66
2018-12-11T14:26:46.424Z,20.68
2018-12-11T14:29:13.103Z,20.67
2018-12-11T14:31:39.747Z,20.70
2018-12-11T14:34:06.412Z,20.69
2018-12-11T14:36:33.045Z,20.69
2018-12-11T14:38:59.658Z,20.68
2018-12-11T14:41:26.537Z,20.70
2018-12-11T14:43:53.214Z,20.70
2018-12-11T14:46:19.914Z,20.72
2018-12-11T14:48:46.520Z,20.73
2018-12-11T14:51:13.174Z,20.74
2018-12-11T14:53:39.831Z,20.73
2018-12-11T14:56:06.478Z,20.73
2018-12-11T14:58:33.131Z,20.75
2018-12-11T15:00:59.828Z,20.72
2018-12-11T15:03:26.424Z,20.72
2018-12-11T15:05:53.109Z,20.73
2018-12-11T15:08:19.709Z,20.76
2018-12-11T15:10:46.485Z,20.75
2018-12-11T15:13:13.121Z,20.75
2018-12-11T15:15:39.757Z,20.76
2018-12-11T15:18:06.404Z,20.77
2018-12-11T15:20:33.062Z,20.76
2018-12-11T15:22:59.761Z,20.80
2018-12-11T15:25:26.382Z,20.76
2018-12-11T15:27:53.086Z,20.77
2018-12-11T15:30:19.741Z,20.73
2018-12-11T15:32:46.376Z,20.76
2018-12-11T15:35:12.982Z,20.77
2018-12-11T15:37:39.648Z,20.78
2018-12-11T15:40:06.273Z,20.77
2018-12-11T15:42:32.943Z,20.78
2018-12-11T15:44:59.586Z,20.80
2018-12-11T15:47:26.318Z,20.77
2018-12-11T15:49:52.928Z,20.78
2018-12-11T15:52:19.535Z,20.77
2018-12-11T15:54:46.264Z,20.79
2018-12-11T15:57:12.886Z,20.81
2018-12-11T15:59:39.589Z,20.80
2018-12-11T16:02:06.356Z,20.80
2018-12-11T16:04:33.037Z,20.80
2018-12-11T16:06:59.623Z,20.82
2018-12-11T16:09:38.903Z,20.81
2018-12-11T16:12:05.623Z,20.80
2018-12-11T16:14:32.234Z,20.82
2018-12-11T16:16:58.891Z,20.82
2018-12-11T16:19:25.597Z,20.81
2018-12-11T16:21:52.230Z,20.80
2018-12-11T16:24:18.905Z,20.80
2018-12-11T16:26:45.596Z,20.82
2018-12-11T16:29:12.316Z,20.82
2018-12-11T16:31:38.992Z,20.83
2018-12-11T16:34:05.605Z,20.84
2018-12-11T16:36:32.297Z,20.84
2018-12-11T16:38:58.927Z,20.85
2018-12-11T16:41:25.624Z,20.84
2018-12-11T16:43:52.255Z,20.85
2018-12-11T16:46:18.894Z,20.87
2018-12-11T16:48:45.525Z,20.85
2018-12-11T16:51:12.155Z,20.88
2018-12-11T16:53:38.751Z,20.87
2018-12-11T16:56:05.352Z,20.86
2018-12-11T16:58:31.973Z,20.86
2018-12-11T17:00:58.637Z,20.86
2018-12-11T17:03:25.417Z,20.86
2018-12-11T17:05:52.006Z,20.87
2018-12-11T17:08:18.679Z,20.87
2018-12-11T17:10:45.291Z,20.87
2018-12-11T17:13:11.919Z,20.86
2018-12-11T17:15:38.877Z,20.89
2018-12-11T17:18:05.547Z,20.87
2018-12-11T17:20:32.992Z,20.88
2018-12-11T17:22:59.675Z,20.87
2018-12-11T17:25:26.285Z,20.88
2018-12-11T17:27:52.890Z,20.90
2018-12-11T17:30:19.508Z,20.91
2018-12-11T17:32:46.102Z,20.88
2018-12-11T17:35:12.692Z,20.91
2018-12-11T17:37:39.299Z,20.88
2018-12-11T17:40:05.884Z,20.89
2018-12-11T17:42:32.475Z,20.87
2018-12-11T17:44:59.071Z,20.89
2018-12-11T17:47:25.658Z,20.86
2018-12-11T17:49:52.247Z,20.86
2018-12-11T17:52:18.863Z,20.86
2018-12-11T17:54:45.473Z,20.86
2018-12-11T17:57:12.106Z,20.87
2018-12-11T17:59:38.742Z,20.86
2018-12-11T18:02:05.464Z,20.86
2018-12-11T18:04:32.108Z,20.87
2018-12-11T18:06:58.682Z,20.87
2018-12-11T18:09:25.284Z,20.87
2018-12-11T18:11:51.908Z,20.86
2018-12-11T18:14:18.541Z,20.87
2018-12-11T18:16:45.129Z,20.89
2018-12-11T18:19:11.710Z,20.88
2018-12-11T18:21:38.358Z,20.88
2018-12-11T18:24:04.977Z,20.86
2018-12-11T18:26:31.589Z,20.87
2018-12-11T18:28:58.189Z,20.88
2018-12-11T18:31:24.770Z,20.86
2018-12-11T18:33:51.387Z,20.89
2018-12-11T18:36:18.005Z,20.87
2018-12-11T18:38:44.642Z,20.87
2018-12-11T18:41:11.212Z,20.87
2018-12-11T18:43:37.816Z,20.88
2018-12-11T18:46:04.396Z,20.88
2018-12-11T18:48:31.001Z,20.89
2018-12-11T18:50:57.559Z,20.90
2018-12-11T18:53:24.177Z,20.89
2018-12-11T18:55:50.836Z,20.88
2018-12-11T18:58:17.470Z,20.87
2018-12-11T19:00:44.036Z,20.89
2018-12-11T19:03:10.631Z,20.89
2018-12-11T19:05:37.236Z,20.89
2018-12-11T19:08:03.874Z,20.88
2018-12-11T19:10:30.422Z,20.89
2018-12-11T19:12:57.020Z,20.88
2018-12-11T19:15:23.642Z,20.88
2018-12-11T19:17:50.233Z,20.87
2018-12-11T19:20:16.813Z,20.89
2018-12-11T19:22:43.395Z,20.89
2018-12-11T19:25:10.115Z,20.91
2018-12-11T19:27:36.731Z,20.94
2018-12-11T19:30:03.325Z,20.94
2018-12-11T19:32:29.901Z,20.94
2018-12-11T19:34:56.517Z,20.91
2018-12-11T19:37:24.523Z,20.93
2018-12-11T19:39:51.297Z,20.91
2018-12-11T19:42:17.951Z,20.91
2018-12-11T19:44:44.597Z,20.93
2018-12-11T19:47:11.183Z,20.91
2018-12-11T19:49:37.763Z,20.91
2018-12-11T19:52:04.319Z,20.91
2018-12-11T19:54:30.871Z,20.91
2018-12-11T19:56:57.442Z,20.91
2018-12-11T19:59:24.028Z,20.90
2018-12-11T20:01:50.583Z,20.90
2018-12-11T20:04:17.423Z,20.92
2018-12-11T20:06:44.015Z,20.92
2018-12-11T20:09:10.585Z,20.91
2018-12-11T20:11:37.139Z,20.91
2018-12-11T20:14:03.699Z,20.93
2018-12-11T20:16:30.276Z,20.91
2018-12-11T20:18:56.831Z,20.91
2018-12-11T20:21:23.412Z,20.93
2018-12-11T20:23:49.967Z,20.92
2018-12-11T20:26:16.615Z,20.95
2018-12-11T20:28:43.171Z,20.95
2018-12-11T20:31:09.720Z,20.93
2018-12-11T20:33:36.280Z,20.95
2018-12-11T20:36:02.855Z,20.95
2018-12-11T20:38:29.420Z,20.96
2018-12-11T20:40:55.989Z,20.98
2018-12-11T20:43:22.566Z,20.98
2018-12-11T20:45:49.713Z,20.97
2018-12-11T20:48:16.276Z,20.98
2018-12-11T20:50:42.861Z,20.96
2018-12-11T20:53:09.484Z,21.01
2018-12-11T20:55:36.086Z,20.98
2018-12-11T20:58:02.655Z,20.99
2018-12-11T21:00:31.272Z,21.02
2018-12-11T21:02:57.846Z,21.01
2018-12-11T21:05:24.615Z,21.02
2018-12-11T21:07:51.462Z,21.07
2018-12-11T21:10:18.131Z,21.09
2018-12-11T21:12:44.893Z,21.07
2018-12-11T21:15:11.530Z,21.07
2018-12-11T21:17:38.116Z,21.04
2018-12-11T21:20:04.830Z,21.02
2018-12-11T21:22:31.528Z,21.03
2018-12-11T21:24:58.175Z,21.02
2018-12-11T21:27:24.962Z,21.02
2018-12-11T21:29:51.538Z,21.03
2018-12-11T21:32:18.169Z,21.03
2018-12-11T21:34:44.831Z,21.02
2018-12-11T21:37:11.479Z,21.04
2018-12-11T21:39:38.115Z,21.03
2018-12-11T21:42:04.895Z,21.02
2018-12-11T21:44:31.513Z,21.03
2018-12-11T21:46:58.142Z,21.04
2018-12-11T21:49:24.747Z,21.01
2018-12-11T21:51:51.375Z,21.05
2018-12-11T21:54:17.964Z,21.05
2018-12-11T21:56:44.551Z,21.05
2018-12-11T21:59:11.147Z,21.04
2018-12-11T22:01:38.740Z,21.07
2018-12-11T22:04:05.374Z,21.06
2018-12-11T22:06:31.982Z,21.04
2018-12-11T22:08:58.580Z,21.04
2018-12-11T22:11:25.143Z,21.06
2018-12-11T22:13:51.731Z,21.08
2018-12-11T22:16:18.350Z,21.10
2018-12-11T22:18:44.968Z,21.08
2018-12-11T22:21:11.555Z,21.07
2018-12-11T22:23:38.119Z,21.06
2018-12-11T22:26:04.886Z,21.07
2018-12-11T22:28:31.543Z,21.08
2018-12-11T22:30:58.128Z,21.06
2018-12-11T22:33:24.743Z,21.04
2018-12-11T22:35:51.307Z,21.08
2018-12-11T22:38:17.911Z,21.07
2018-12-11T22:40:44.518Z,21.06
2018-12-11T22:43:11.107Z,21.06
2018-12-11T22:45:37.700Z,21.07
2018-12-11T22:48:04.284Z,21.08
2018-12-11T22:50:30.910Z,21.08
2018-12-11T22:52:57.504Z,21.05
2018-12-11T22:55:24.090Z,21.07
2018-12-11T22:57:50.743Z,21.07
2018-12-11T23:00:17.329Z,21.08
2018-12-11T23:02:43.969Z,21.08
2018-12-11T23:05:10.579Z,21.08
2018-12-11T23:07:37.133Z,21.07
2018-12-11T23:10:03.689Z,21.06
2018-12-11T23:12:30.283Z,21.06
2018-12-11T23:14:56.884Z,21.07
2018-12-11T23:17:23.448Z,21.08
2018-12-11T23:19:50.027Z,21.07
2018-12-11T23:22:16.682Z,21.08
2018-12-11T23:24:43.578Z,21.09
2018-12-11T23:27:10.262Z,21.09
2018-12-11T23:29:36.862Z,21.07
2018-12-11T23:32:03.458Z,21.08
2018-12-11T23:34:30.160Z,21.07
2018-12-11T23:36:56.754Z,20.91
2018-12-11T23:39:23.348Z,21.07
2018-12-11T23:41:49.980Z,21.07
2018-12-11T23:44:16.574Z,21.07
2018-12-11T23:46:43.173Z,21.07
2018-12-11T23:49:10.183Z,21.07
2018-12-11T23:51:36.795Z,21.09
2018-12-11T23:54:03.382Z,21.07
2018-12-11T23:56:29.993Z,21.07
2018-12-11T23:58:56.639Z,21.07
